Time;durP1;ratioP1;P1;durP2;ratioP2;P2;SDS_P1;SDS_P2;PMS_P1;PMS_P2;Temp;Humidity;BMP_temperature;BMP_pressure;BME280_temperature;BME280_humidity;BME280_pressure;Samples;Min_cycle;Max_cycle;Signal;HPM_P1;HPM_P2
2022/03/01 00:00:53;;;;;;;10.00;4.40;;;;;;;2.31;45.93;101612.00;123263;1102;104402;-82
2022/03/01 00:03:25;;;;;;;15.17;4.93;;;;;;;2.28;45.90;101607.45;123247;1102;104227;-82
2022/03/01 00:05:56;;;;;;;12.03;4.77;;;;;;;2.25;46.67;101608.88;123195;1102;106921;-81
2022/03/01 00:08:28;;;;;;;13.27;5.43;;;;;;;2.24;46.49;101600.17;123274;1102;104398;-81
2022/03/01 00:10:59;;;;;;;14.13;5.43;;;;;;;2.21;46.77;101599.91;123296;1102;104637;-82
2022/03/01 00:13:31;;;;;;;16.70;5.80;;;;;;;2.20;47.16;101594.59;123252;1102;104395;-82
2022/03/01 00:16:02;;;;;;;15.23;5.87;;;;;;;2.19;46.92;101601.47;123232;1102;118909;-83
2022/03/01 00:18:34;;;;;;;18.10;6.10;;;;;;;2.15;48.16;101592.54;123343;1102;104463;-83
2022/03/01 00:21:11;;;;;;;17.57;6.50;;;;;;;2.14;47.46;101588.12;123289;1102;104441;-82
2022/03/01 00:23:51;;;;;;;19.13;6.17;;;;;;;2.13;47.05;101583.70;123325;1102;104246;-81
2022/03/01 00:26:23;;;;;;;16.77;5.90;;;;;;;2.12;48.21;101573.22;123390;1102;104334;-82
2022/03/01 00:28:54;;;;;;;18.60;6.53;;;;;;;2.13;47.44;101585.40;123760;1102;104373;-82
2022/03/01 00:31:31;;;;;;;17.40;5.80;;;;;;;2.15;47.78;101574.41;123760;1102;104529;-82
2022/03/01 00:34:03;;;;;;;18.23;6.80;;;;;;;2.12;48.39;101579.33;123695;1100;104280;-79
2022/03/01 00:36:36;;;;;;;19.07;6.90;;;;;;;2.10;48.54;101586.06;123737;1102;104373;-80
2022/03/01 00:39:08;;;;;;;17.65;6.15;;;;;;;2.07;48.89;101574.51;123711;1099;104249;-80
2022/03/01 00:41:39;;;;;;;15.83;6.17;;;;;;;2.07;47.39;101571.92;123802;1099;104345;-80
2022/03/01 00:44:17;;;;;;;15.60;6.20;;;;;;;2.06;48.57;101573.61;123194;1099;104367;-81
2022/03/01 00:46:49;;;;;;;17.60;6.33;;;;;;;2.03;48.89;101582.80;123295;1102;104338;-81
2022/03/01 00:49:22;;;;;;;14.73;5.80;;;;;;;2.03;48.56;101588.88;123405;1099;104261;-81
2022/03/01 00:51:53;;;;;;;15.60;6.45;;;;;;;2.04;48.81;101579.42;123328;1099;104283;-82
2022/03/01 00:54:27;;;;;;;16.50;6.27;;;;;;;2.04;48.97;101590.70;123170;1102;104389;-81
2022/03/01 00:57:00;;;;;;;18.80;6.60;;;;;;;2.02;48.17;101580.98;123195;1101;104281;-82
2022/03/01 00:59:33;;;;;;;16.60;5.90;;;;;;;2.02;48.76;101571.52;123269;1099;104340;-82
2022/03/01 01:02:06;;;;;;;15.93;6.30;;;;;;;2.00;49.63;101585.13;123261;1100;104351;-83
2022/03/01 01:04:38;;;;;;;16.43;6.40;;;;;;;2.00;48.75;101580.84;123303;1099;104163;-82
2022/03/01 01:07:11;;;;;;;19.50;6.60;;;;;;;1.98;49.53;101590.17;123261;1099;104307;-82
2022/03/01 01:09:44;;;;;;;17.53;6.57;;;;;;;1.96;49.60;101579.68;123319;1099;104284;-82
2022/03/01 01:12:17;;;;;;;16.57;6.60;;;;;;;1.96;49.13;101577.09;123420;1098;104213;-82
2022/03/01 01:14:49;;;;;;;19.53;6.50;;;;;;;1.93;49.94;101573.30;123328;1099;104287;-82
2022/03/01 01:17:23;;;;;;;17.07;6.27;;;;;;;1.93;49.68;101578.48;123311;1099;104239;-82
2022/03/01 01:20:14;;;;;;;14.90;6.07;;;;;;;1.92;48.86;101569.82;123239;1099;104270;-82
2022/03/01 01:22:47;;;;;;;15.80;6.33;;;;;;;1.92;49.75;101566.33;123211;1099;104304;-82
2022/03/01 01:25:21;;;;;;;17.10;7.10;;;;;;;1.93;49.74;101566.47;123420;1102;104357;-82
2022/03/01 01:27:54;;;;;;;16.37;5.97;;;;;;;1.93;49.75;101558.70;123258;1099;108103;-82
2022/03/01 01:30:30;;;;;;;17.85;6.87;;;;;;;1.94;49.76;101562.19;123284;1100;104242;-82
2022/03/01 01:33:03;;;;;;;13.50;5.70;;;;;;;1.94;49.53;101567.36;123389;1099;104415;-83
2022/03/01 01:35:36;;;;;;;15.27;6.00;;;;;;;1.95;49.35;101577.85;123245;1099;104329;-82
2022/03/01 01:38:08;;;;;;;17.65;6.78;;;;;;;1.92;50.08;101569.82;123349;1099;104389;-82
2022/03/01 01:40:42;;;;;;;16.17;6.37;;;;;;;1.90;50.55;101558.44;123422;1101;104338;-82
2022/03/01 01:43:14;;;;;;;15.40;5.72;;;;;;;1.87;50.84;101562.41;123324;1100;104331;-81
2022/03/01 01:45:46;;;;;;;17.17;6.10;;;;;;;1.87;50.69;101567.59;123264;1099;104396;-82
2022/03/01 01:48:17;;;;;;;15.55;6.00;;;;;;;1.87;50.21;101565.93;123303;1099;104441;-82
2022/03/01 01:50:49;;;;;;;16.27;5.97;;;;;;;1.87;50.42;101570.18;123309;1099;104366;-83
2022/03/01 01:53:22;;;;;;;14.80;5.87;;;;;;;1.89;50.21;101564.38;123311;1102;104384;-81
2022/03/01 01:55:54;;;;;;;13.55;5.15;;;;;;;1.88;50.70;101559.95;123368;1102;104255;-81
2022/03/01 01:58:25;;;;;;;13.83;5.23;;;;;;;1.85;50.72;101556.20;123305;1099;119846;-82
2022/03/01 02:00:57;;;;;;;17.07;5.80;;;;;;;1.83;50.25;101550.89;123239;1102;104425;-83
2022/03/01 02:03:29;;;;;;;17.47;6.00;;;;;;;1.83;50.86;101553.48;123270;1099;104246;-82
2022/03/01 02:06:02;;;;;;;16.67;5.50;;;;;;;1.83;50.89;101550.00;123382;1099;104404;-82
2022/03/01 02:08:44;;;;;;;15.90;5.57;;;;;;;1.78;51.69;101540.14;123287;1099;104261;-81
2022/03/01 02:11:16;;;;;;;15.47;5.80;;;;;;;1.78;51.02;101545.31;123221;1097;104383;-83
2022/03/01 02:13:49;;;;;;;15.37;6.03;;;;;;;1.78;51.94;101550.49;123216;1099;104351;-81
2022/03/01 02:16:24;;;;;;;15.07;5.73;;;;;;;1.76;51.80;101541.70;123358;1099;104300;-82
2022/03/01 02:18:57;;;;;;;15.37;5.60;;;;;;;1.78;51.38;101544.42;123395;1100;108946;-82
2022/03/01 02:21:29;;;;;;;15.00;6.05;;;;;;;1.76;51.02;101531.34;123304;1099;104338;-81
2022/03/01 02:24:01;;;;;;;14.33;6.10;;;;;;;1.76;51.32;101536.52;123271;1099;104385;-81
2022/03/01 02:26:35;;;;;;;15.80;5.80;;;;;;;1.76;52.17;101541.70;123296;1099;104796;-81
2022/03/01 02:29:09;;;;;;;18.62;5.97;;;;;;;1.73;52.68;101530.14;123477;1099;104258;-81
2022/03/01 02:31:43;;;;;;;16.90;6.75;;;;;;;1.75;51.33;101529.52;123282;1099;104797;-82
2022/03/01 02:34:16;;;;;;;18.57;7.33;;;;;;;1.73;52.62;101519.80;123235;1099;104271;-82
2022/03/01 02:36:49;;;;;;;18.20;6.67;;;;;;;1.72;51.92;101518.90;123229;1099;104361;-81
2022/03/01 02:39:22;;;;;;;16.10;6.10;;;;;;;1.72;52.33;101507.66;123125;1099;107592;-83
2022/03/01 02:41:55;;;;;;;16.07;6.63;;;;;;;1.69;51.74;101505.69;123256;1099;104265;-81
2022/03/01 02:44:28;;;;;;;17.48;6.60;;;;;;;1.66;52.28;101510.60;123189;1099;104354;-82
2022/03/01 02:47:02;;;;;;;23.40;8.67;;;;;;;1.65;52.27;101511.36;123227;1099;104338;-83
2022/03/01 02:49:35;;;;;;;30.07;10.17;;;;;;;1.64;52.87;101514.75;123334;1102;119737;-81
2022/03/01 02:52:08;;;;;;;28.07;8.70;;;;;;;1.63;53.19;101507.74;123241;1099;104313;-82
2022/03/01 02:54:40;;;;;;;28.30;9.65;;;;;;;1.58;53.21;101509.92;123307;1102;104645;-83
2022/03/01 02:57:12;;;;;;;22.23;7.67;;;;;;;1.58;53.14;101507.34;123306;1099;104262;-82
2022/03/01 02:59:45;;;;;;;17.00;6.00;;;;;;;1.56;54.24;101497.66;123326;1102;104753;-81
2022/03/01 03:02:19;;;;;;;14.80;6.05;;;;;;;1.56;52.77;101495.06;123287;1099;104383;-82
2022/03/01 03:04:51;;;;;;;14.30;5.83;;;;;;;1.57;53.60;101489.09;123249;1098;104316;-81
2022/03/01 03:07:22;;;;;;;14.97;6.03;;;;;;;1.57;53.80;101495.20;123277;1099;104239;-82
2022/03/01 03:09:54;;;;;;;14.60;5.13;;;;;;;1.57;53.32;101486.51;123230;1099;104217;-81
2022/03/01 03:12:25;;;;;;;16.40;5.57;;;;;;;1.55;52.79;101481.20;123233;1099;104248;-82
2022/03/01 03:14:57;;;;;;;14.33;5.97;;;;;;;1.57;52.83;101489.09;123279;1099;104743;-82
2022/03/01 03:17:28;;;;;;;17.60;5.70;;;;;;;1.55;53.29;101478.61;123217;1099;104824;-82
2022/03/01 03:19:59;;;;;;;16.60;6.67;;;;;;;1.54;53.31;101481.06;123300;1099;104280;-81
2022/03/01 03:22:31;;;;;;;16.10;6.23;;;;;;;1.54;53.16;101476.82;123207;1102;104350;-82
2022/03/01 03:25:03;;;;;;;16.03;6.40;;;;;;;1.54;53.42;101481.06;123238;1099;104680;-81
2022/03/01 03:27:44;;;;;;;19.20;6.17;;;;;;;1.54;52.92;101475.89;123173;1099;104421;-81
2022/03/01 03:30:15;;;;;;;18.10;6.00;;;;;;;1.56;53.46;101482.13;123257;1099;104684;-82
2022/03/01 03:32:47;;;;;;;17.27;5.70;;;;;;;1.55;53.79;101472.55;123310;1099;104271;-81
2022/03/01 03:35:18;;;;;;;16.23;5.60;;;;;;;1.55;54.18;101469.95;123268;1099;104274;-81
2022/03/01 03:37:50;;;;;;;15.37;5.90;;;;;;;1.55;53.90;101475.13;123298;1099;104236;-82
2022/03/01 03:40:21;;;;;;;14.40;5.67;;;;;;;1.51;55.39;101473.97;123263;1099;104363;-83
2022/03/01 03:42:52;;;;;;;13.40;5.10;;;;;;;1.53;53.98;101474.10;123283;1098;104342;-82
2022/03/01 03:45:24;;;;;;;15.50;5.30;;;;;;;1.52;54.15;101472.27;123475;1102;104270;-82
2022/03/01 03:47:55;;;;;;;11.97;4.77;;;;;;;1.52;54.63;101467.10;123280;1099;104297;-82
2022/03/01 03:50:27;;;;;;;12.03;4.73;;;;;;;1.51;54.83;101465.27;123591;1098;104217;-81
2022/03/01 03:52:59;;;;;;;12.07;5.00;;;;;;;1.50;54.71;101453.14;123276;1099;104376;-83
2022/03/01 03:55:30;;;;;;;11.97;4.73;;;;;;;1.50;54.98;101463.48;123327;1099;104363;-81
2022/03/01 03:58:01;;;;;;;12.90;4.60;;;;;;;1.46;56.00;101456.22;123595;1099;104283;-82
2022/03/01 04:00:33;;;;;;;14.77;5.77;;;;;;;1.43;55.58;101454.26;123727;1099;104287;-82
2022/03/01 04:03:04;;;;;;;14.30;5.07;;;;;;;1.41;54.96;101442.88;123739;1099;104300;-83
2022/03/01 04:05:36;;;;;;;12.80;5.30;;;;;;;1.36;56.96;101455.41;123800;1099;104411;-82
2022/03/01 04:08:08;;;;;;;13.47;5.30;;;;;;;1.36;55.93;101454.52;123766;1099;104341;-82
2022/03/01 04:10:40;;;;;;;13.73;5.20;;;;;;;1.37;56.38;101458.89;123846;1100;104380;-83
2022/03/01 04:13:14;;;;;;;12.53;5.20;;;;;;;1.41;55.08;101448.95;123747;1099;104284;-82
2022/03/01 04:15:45;;;;;;;14.40;5.23;;;;;;;1.47;54.87;101456.35;123870;1100;104370;-82
2022/03/01 04:18:17;;;;;;;13.70;5.33;;;;;;;1.51;55.15;101447.17;123743;1099;104233;-82
2022/03/01 04:20:48;;;;;;;13.37;5.03;;;;;;;1.54;55.33;101457.78;123706;1099;104389;-82
2022/03/01 04:23:20;;;;;;;11.60;4.50;;;;;;;1.50;56.26;101447.97;123744;1099;104264;-82
2022/03/01 04:25:51;;;;;;;13.27;4.93;;;;;;;1.48;57.18;101459.84;123726;1099;104341;-82
2022/03/01 04:28:23;;;;;;;12.97;5.40;;;;;;;1.46;55.44;101449.36;123646;1099;104239;-84
2022/03/01 04:30:55;;;;;;;14.70;5.20;;;;;;;1.44;56.20;101449.22;123291;1099;104371;-81
2022/03/01 04:33:27;;;;;;;13.87;5.37;;;;;;;1.43;56.11;101452.60;123350;1102;104325;-81
2022/03/01 04:36:02;;;;;;;14.90;5.47;;;;;;;1.40;56.42;101465.27;123279;1099;104338;-81
2022/03/01 04:38:33;;;;;;;17.37;5.67;;;;;;;1.39;56.47;101455.68;123253;1099;104355;-80
2022/03/01 04:41:05;;;;;;;12.60;5.13;;;;;;;1.36;57.40;101470.92;123329;1099;104386;-81
2022/03/01 04:43:37;;;;;;;16.83;5.90;;;;;;;1.36;56.41;101470.03;123365;1099;104342;-82
2022/03/01 04:46:09;;;;;;;14.17;5.80;;;;;;;1.36;56.52;101470.92;123310;1099;104309;-82
2022/03/01 04:48:40;;;;;;;20.23;5.50;;;;;;;1.34;57.43;101469.90;123308;1099;104441;-82
2022/03/01 04:51:13;;;;;;;15.07;5.77;;;;;;;1.38;56.44;101477.13;123366;1099;104216;-81
2022/03/01 04:53:45;;;;;;;14.50;5.27;;;;;;;1.38;57.59;101483.99;123439;1099;104248;-81
2022/03/01 04:56:16;;;;;;;14.40;5.00;;;;;;;1.37;57.12;101490.86;123313;1099;104249;-81
2022/03/01 04:58:48;;;;;;;13.80;4.87;;;;;;;1.36;56.63;101486.45;123410;1099;104680;-81
2022/03/01 05:01:20;;;;;;;12.57;5.13;;;;;;;1.37;56.70;101493.44;123294;1099;104367;-82
2022/03/01 05:03:51;;;;;;;13.33;5.27;;;;;;;1.40;57.57;101498.89;123265;1099;104390;-81
2022/03/01 05:06:23;;;;;;;13.47;5.07;;;;;;;1.41;56.50;101503.27;123525;1099;104309;-82
2022/03/01 05:08:54;;;;;;;11.57;4.77;;;;;;;1.43;56.87;101493.05;123485;1099;104357;-82
2022/03/01 05:11:25;;;;;;;12.73;5.30;;;;;;;1.44;57.33;101500.05;123369;1099;104265;-81
2022/03/01 05:13:57;;;;;;;12.13;4.50;;;;;;;1.47;57.86;101507.19;123797;1099;104239;-82
2022/03/01 05:16:28;;;;;;;13.53;5.53;;;;;;;1.46;57.46;101516.61;123836;1099;104357;-82
2022/03/01 05:19:00;;;;;;;14.65;5.85;;;;;;;1.49;57.05;101516.88;124051;1102;104254;-79
2022/03/01 05:21:31;;;;;;;12.83;5.03;;;;;;;1.51;56.69;101517.94;123431;1099;104220;-79
2022/03/01 05:24:03;;;;;;;11.93;4.67;;;;;;;1.52;57.18;101517.15;123985;1099;104284;-79
2022/03/01 05:26:35;;;;;;;12.63;5.00;;;;;;;1.56;56.94;101523.52;123696;1099;104252;-78
2022/03/01 05:29:07;;;;;;;12.47;4.93;;;;;;;1.63;56.37;101523.27;123602;1099;104374;-79
2022/03/01 05:31:38;;;;;;;12.50;4.80;;;;;;;1.68;56.94;101523.67;123779;1099;104337;-79
2022/03/01 05:34:10;;;;;;;11.63;4.80;;;;;;;1.69;56.84;101528.98;123461;1099;104371;-80
2022/03/01 05:36:41;;;;;;;12.27;5.10;;;;;;;1.69;56.91;101526.39;123582;1099;104220;-78
2022/03/01 05:39:12;;;;;;;11.53;4.80;;;;;;;1.67;56.45;101520.19;123480;1099;104256;-81
2022/03/01 05:41:44;;;;;;;11.80;4.77;;;;;;;1.72;56.47;101523.18;123296;1099;104255;-81
2022/03/01 05:44:15;;;;;;;12.07;4.90;;;;;;;1.65;57.00;101518.23;123488;1099;104282;-81
2022/03/01 05:46:47;;;;;;;17.65;5.00;;;;;;;1.64;56.62;101519.92;123289;1099;104361;-82
2022/03/01 05:49:18;;;;;;;15.50;5.35;;;;;;;1.66;56.92;101520.95;123289;1099;104322;-81
2022/03/01 05:51:50;;;;;;;14.50;5.00;;;;;;;1.65;56.86;101513.05;123318;1098;104690;-82
2022/03/01 05:54:22;;;;;;;15.33;5.63;;;;;;;1.63;57.46;101518.09;123347;1099;104217;-81
2022/03/01 05:56:53;;;;;;;13.93;5.60;;;;;;;1.67;57.04;101509.84;123270;1098;104264;-80
2022/03/01 05:59:25;;;;;;;14.30;5.50;;;;;;;1.69;56.47;101505.69;123635;1099;104256;-80
2022/03/01 06:01:56;;;;;;;13.53;5.57;;;;;;;1.64;57.55;101508.64;123435;1099;104246;-82
2022/03/01 06:04:27;;;;;;;17.53;5.73;;;;;;;1.64;56.74;101506.98;123367;1099;104396;-81
2022/03/01 06:06:59;;;;;;;13.17;5.40;;;;;;;1.68;56.88;101505.56;123620;1099;104651;-81
2022/03/01 06:09:31;;;;;;;18.10;5.80;;;;;;;1.72;57.24;101502.48;123571;1099;104281;-81
2022/03/01 06:12:02;;;;;;;17.80;5.60;;;;;;;1.66;58.33;101499.35;123584;1099;104315;-80
2022/03/01 06:14:35;;;;;;;16.93;6.20;;;;;;;1.60;57.67;101498.02;123523;1102;104499;-83
2022/03/01 06:17:07;;;;;;;17.63;6.47;;;;;;;1.58;58.46;101496.09;123513;1102;104316;-80
2022/03/01 06:19:39;;;;;;;18.33;6.17;;;;;;;1.61;58.00;101496.36;123405;1103;104425;-80
2022/03/01 06:22:11;;;;;;;15.83;6.00;;;;;;;1.64;58.27;101496.63;123316;1102;104342;-81
2022/03/01 06:24:45;;;;;;;19.67;6.70;;;;;;;1.63;59.11;101487.05;123596;1102;104302;-80
2022/03/01 06:27:19;;;;;;;20.00;6.80;;;;;;;1.61;58.75;101498.95;123731;1102;104491;-81
2022/03/01 06:29:52;;;;;;;17.50;6.37;;;;;;;1.61;58.99;101488.60;123614;1102;104607;-81
2022/03/01 06:32:27;;;;;;;17.40;6.13;;;;;;;1.63;58.42;101489.63;123774;1102;104235;-80
2022/03/01 06:35:01;;;;;;;18.00;6.40;;;;;;;1.63;58.25;101489.63;123666;1102;104303;-80
2022/03/01 06:37:33;;;;;;;19.30;6.50;;;;;;;1.66;58.54;101500.25;123342;1102;104348;-78
2022/03/01 06:40:08;;;;;;;17.93;6.10;;;;;;;1.64;58.95;101487.94;123718;1102;104312;-80
2022/03/01 06:42:42;;;;;;;15.87;5.97;;;;;;;1.63;58.79;101497.39;124053;1099;104261;-83
2022/03/01 06:45:20;;;;;;;17.48;6.30;;;;;;;1.63;58.60;101487.05;123972;1099;104323;-82
2022/03/01 06:47:54;;;;;;;15.53;6.23;;;;;;;1.63;58.33;101489.63;124364;1099;104169;-82
2022/03/01 06:50:28;;;;;;;17.60;6.33;;;;;;;1.64;58.35;101493.12;124127;1102;104233;-80
2022/03/01 06:53:20;;;;;;;;;;;;;;;;;;;;;
2022/03/01 06:55:53;;;;;;;17.67;6.67;;;;;;;1.68;58.75;101490.03;123803;1099;104341;-81
2022/03/01 06:58:34;;;;;;;18.63;6.23;;;;;;;1.68;58.32;101488.34;124201;1098;104265;-85
2022/03/01 07:01:13;;;;;;;16.23;5.57;;;;;;;1.65;58.86;101495.84;124155;1102;104303;-85
2022/03/01 07:03:49;;;;;;;17.13;6.47;;;;;;;1.64;58.77;101496.63;124132;1099;102995;-83
2022/03/01 07:06:26;;;;;;;16.00;6.60;;;;;;;1.69;58.18;101500.52;124051;1099;104400;-85
2022/03/01 07:09:01;;;;;;;19.25;6.40;;;;;;;1.72;58.47;101507.66;124293;1099;104341;-83
2022/03/01 07:11:34;;;;;;;20.10;7.00;;;;;;;1.73;58.57;101505.20;124405;1099;104169;-84
2022/03/01 07:14:15;;;;;;;18.57;6.90;;;;;;;1.73;58.33;101504.27;123799;1099;104778;-85
2022/03/01 07:16:51;;;;;;;18.37;6.63;;;;;;;1.71;59.18;101500.66;123879;1102;104549;-85
2022/03/01 07:19:32;;;;;;;17.23;7.07;;;;;;;1.72;59.01;101498.20;123473;1102;104434;-83
2022/03/01 07:22:06;;;;;;;18.67;7.28;;;;;;;1.76;58.60;101497.70;123561;1099;104297;-81
2022/03/01 07:24:39;;;;;;;;;;;;;;;1.81;58.48;101503.28;123645;1099;104265;-82
2022/03/01 07:27:20;;;;;;;18.77;6.50;;;;;;;1.86;58.90;101509.75;123896;1102;104358;-84
2022/03/01 07:30:09;;;;;;;17.93;7.23;;;;;;;1.87;58.48;101501.22;123887;1102;104219;-83
2022/03/01 07:32:43;;;;;;;24.33;7.53;;;;;;;1.92;58.23;101488.67;123919;1099;104259;-83
2022/03/01 07:35:47;;;;;;;19.53;7.40;;;;;;;1.91;59.11;101499.80;124463;1101;104233;-85
2022/03/01 07:38:33;;;;;;;;;;;;;;;;;;;;;
2022/03/01 07:41:23;;;;;;;19.47;7.30;;;;;;;1.88;58.86;101499.53;124248;1102;104805;-84
2022/03/01 07:44:10;;;;;;;24.40;8.27;;;;;;;1.88;59.27;101489.17;124122;1102;104515;-85
2022/03/01 07:47:13;;;;;;;21.75;7.85;;;;;;;1.89;59.65;101489.31;123936;1102;104425;-82
2022/03/01 07:50:00;;;;;;;21.63;8.10;;;;;;;1.90;59.34;101497.97;124105;1102;104402;-82
2022/03/01 07:52:34;;;;;;;21.93;7.70;;;;;;;1.87;59.83;101482.17;124012;1102;104283;-83
2022/03/01 07:55:14;;;;;;;19.85;6.85;;;;;;;1.90;59.50;101488.55;123546;1102;104416;-84
2022/03/01 07:57:52;;;;;;;19.47;7.83;;;;;;;1.92;58.90;101481.81;123968;1102;104530;-83
2022/03/01 08:00:32;;;;;;;21.77;7.87;;;;;;;1.92;59.39;101479.22;124261;1102;104274;-83
2022/03/01 08:03:18;;;;;;;21.97;7.97;;;;;;;1.94;60.16;101479.35;123690;1102;104425;-84
2022/03/01 08:06:01;;;;;;;19.50;6.90;;;;;;;1.94;59.89;101482.84;124046;1102;104258;-83
2022/03/01 08:08:40;;;;;;;22.50;8.40;;;;;;;1.96;59.98;101485.56;124154;1099;104245;-84
2022/03/01 08:11:17;;;;;;;19.45;7.80;;;;;;;1.98;59.94;101482.34;124230;1099;104363;-85
2022/03/01 08:13:53;;;;;;;22.77;8.33;;;;;;;1.99;60.08;101485.82;123960;1102;104271;-85
2022/03/01 08:16:41;;;;;;;17.70;7.23;;;;;;;1.97;60.14;101477.92;124144;1099;104287;-82
2022/03/01 08:19:13;;;;;;;22.50;8.10;;;;;;;1.96;59.99;101477.79;123700;1100;104281;-82
2022/03/01 08:21:50;;;;;;;22.53;8.97;;;;;;;1.95;59.91;101481.17;123432;1099;104395;-83
2022/03/01 08:24:29;;;;;;;19.50;8.00;;;;;;;1.95;60.60;101481.17;124236;1099;104189;-83
2022/03/01 08:27:16;;;;;;;23.00;8.90;;;;;;;1.98;60.43;101482.34;123743;1099;104245;-84
2022/03/01 08:29:49;;;;;;;20.37;8.13;;;;;;;1.98;60.86;101479.75;124102;1097;104272;-81
2022/03/01 08:32:39;;;;;;;22.90;8.60;;;;;;;1.97;60.14;101477.92;124474;1099;104342;-83
2022/03/01 08:35:23;;;;;;;19.77;8.10;;;;;;;1.97;59.94;101475.33;124186;1099;104261;-82
2022/03/01 08:38:02;;;;;;;21.00;8.60;;;;;;;1.97;59.94;101477.03;124067;1099;104236;-83
2022/03/01 08:40:41;;;;;;;20.07;8.40;;;;;;;1.95;60.09;101479.48;124090;1099;104361;-84
2022/03/01 08:43:16;;;;;;;22.17;9.30;;;;;;;1.95;60.37;101473.41;124546;1099;104240;-81
2022/03/01 08:45:57;;;;;;;21.87;8.93;;;;;;;2.01;60.22;101480.77;123947;1099;104389;-82
2022/03/01 08:48:41;;;;;;;22.25;8.45;;;;;;;2.02;61.24;101482.59;123842;1099;104395;-84
2022/03/01 08:51:16;;;;;;;23.00;8.30;;;;;;;2.04;60.53;101469.02;124253;1099;104347;-82
2022/03/01 08:53:58;;;;;;;22.77;8.43;;;;;;;2.05;61.25;101477.69;123829;1099;104265;-82
2022/03/01 08:56:40;;;;;;;22.40;8.40;;;;;;;2.05;61.13;101475.09;123419;1100;104310;-81
2022/03/01 08:59:14;;;;;;;23.47;8.43;;;;;;;2.04;61.69;101483.63;123699;1102;104338;-82
2022/03/01 09:01:52;;;;;;;25.60;8.97;;;;;;;2.07;60.21;101478.71;123480;1102;104425;-83
2022/03/01 09:04:33;;;;;;;23.23;7.67;;;;;;;2.06;61.52;101493.35;123749;1099;104380;-83
2022/03/01 09:07:15;;;;;;;19.67;7.60;;;;;;;2.05;61.16;101482.86;123616;1099;104288;-84
2022/03/01 09:09:55;;;;;;;20.03;8.07;;;;;;;2.02;61.52;101475.73;123707;1099;104248;-83
2022/03/01 09:12:30;;;;;;;22.53;9.43;;;;;;;2.03;61.79;101474.06;123579;1099;104252;-82
2022/03/01 09:15:10;;;;;;;22.83;9.53;;;;;;;2.06;60.71;101475.22;123521;1099;104338;-82
2022/03/01 09:17:46;;;;;;;25.00;9.50;;;;;;;2.06;61.20;101475.22;123646;1099;104488;-83
2022/03/01 09:20:23;;;;;;;;;;;;;;;2.01;62.41;101467.83;123572;1099;104306;-85
2022/03/01 09:23:24;;;;;;;23.20;8.30;;;;;;;2.13;61.14;101476.64;123803;1099;104354;-82
2022/03/01 09:29:10;;;;;;;21.27;8.63;;;;;;;2.19;61.49;101476.27;123876;1099;104348;-82
2022/03/01 09:31:43;;;;;;;24.83;9.53;;;;;;;2.13;60.77;101471.47;123921;1102;104454;-80
2022/03/01 09:34:19;;;;;;;19.10;8.90;;;;;;;2.11;60.83;101467.85;124039;1103;104424;-81
2022/03/01 09:36:57;;;;;;;24.20;9.95;;;;;;;2.10;61.26;101471.20;123757;1102;104438;-80
2022/03/01 09:39:32;;;;;;;22.93;9.40;;;;;;;2.13;61.02;101467.18;123821;1102;104389;-82
2022/03/01 09:42:07;;;;;;;22.15;9.05;;;;;;;2.11;61.21;101473.92;124049;1102;104230;-81
2022/03/01 09:44:49;;;;;;;22.32;8.88;;;;;;;2.08;61.90;101465.89;123691;1102;104467;-83
2022/03/01 09:47:40;;;;;;;25.73;9.97;;;;;;;2.14;61.39;101463.83;123855;1102;102426;-84
2022/03/01 09:50:32;;;;;;;25.50;10.80;;;;;;;2.15;60.94;101454.37;124027;1099;104453;-83
2022/03/01 09:53:32;;;;;;;;;;;;;;;;;;;;;
2022/03/01 09:56:18;;;;;;;19.23;8.17;;;;;;;2.14;61.30;101457.75;124369;1099;104246;-81
2022/03/01 09:59:19;;;;;;;;;;;;;;;;;;;;;
2022/03/01 10:02:31;;;;;;;22.27;9.13;;;;;;;2.13;61.14;101446.47;124323;1099;104387;-83
2022/03/01 10:05:19;;;;;;;24.67;10.00;;;;;;;2.19;60.94;101442.61;123829;1099;104232;-83
2022/03/01 10:08:41;;;;;;;;;;;;;;;;;;;;;
2022/03/01 10:11:43;;;;;;;23.90;9.77;;;;;;;2.12;61.24;101433.39;123915;1099;104402;-84
2022/03/01 10:14:47;;;;;;;21.47;9.70;;;;;;;2.15;60.80;101429.41;123810;1102;104450;-83
2022/03/01 10:17:23;;;;;;;24.80;9.87;;;;;;;2.18;60.86;101436.50;123747;1105;104226;-82
2022/03/01 10:20:31;;;;;;;22.20;8.83;;;;;;;2.18;60.99;101433.91;123963;1102;104328;-83
2022/03/01 10:27:39;;;;;;;;;;;;;;;;;;;;;
2022/03/01 10:30:33;;;;;;;19.53;8.10;;;;;;;2.15;61.08;101423.30;123964;1109;118019;-84
2022/03/01 10:33:24;;;;;;;19.73;8.87;;;;;;;2.07;61.77;101401.97;123536;1109;104551;-84
2022/03/01 10:40:12;;;;;;;20.87;9.13;;;;;;;2.19;61.38;101415.02;123350;1107;104421;-85
2022/03/01 10:43:18;;;;;;;23.40;9.50;;;;;;;2.21;61.12;101410.86;124138;1105;104203;-84
2022/03/01 10:45:59;;;;;;;;;;;;;;;2.20;61.46;101403.89;123685;1102;104441;-84
2022/03/01 10:48:52;;;;;;;21.00;9.17;;;;;;;2.17;61.39;101413.99;123731;1102;104389;-85
2022/03/01 10:51:32;;;;;;;18.30;8.00;;;;;;;2.13;62.06;101412.80;124573;1102;104325;-82
2022/03/01 10:54:35;;;;;;;18.10;7.93;;;;;;;2.11;62.17;101392.77;123988;1102;104274;-82
2022/03/01 10:57:36;;;;;;;;;;;;;;;;;;;;;
2022/03/01 11:00:46;;;;;;;19.13;8.70;;;;;;;2.14;61.75;101406.86;124269;1102;104434;-86
2022/03/01 11:03:37;;;;;;;21.50;8.97;;;;;;;2.14;62.02;101396.50;124243;1102;104777;-83
2022/03/01 11:06:16;;;;;;;18.70;8.00;;;;;;;2.14;62.25;101405.97;124370;1099;104233;-82
2022/03/01 11:08:53;;;;;;;19.43;8.37;;;;;;;2.13;62.00;101386.91;123702;1099;104322;-85
2022/03/01 11:11:44;;;;;;;21.13;8.67;;;;;;;2.11;61.53;101390.17;124375;1102;104325;-81
2022/03/01 11:14:23;;;;;;;20.83;8.60;;;;;;;2.10;61.90;101394.45;125137;1099;104325;-81
2022/03/01 11:17:16;;;;;;;19.60;9.53;;;;;;;2.11;62.02;101390.17;124551;1099;104929;-83
2022/03/01 11:20:02;;;;;;;24.73;9.97;;;;;;;2.12;61.58;101381.61;124710;1099;104274;-84
2022/03/01 11:22:50;;;;;;;21.37;9.13;;;;;;;2.15;61.46;101379.27;124931;1099;104240;-86
2022/03/01 11:25:53;;;;;;;20.97;8.83;;;;;;;2.20;61.72;101382.25;125853;1099;102518;-85
2022/03/01 11:28:40;;;;;;;18.13;7.87;;;;;;;2.22;61.77;101368.66;124630;1100;104325;-84
2022/03/01 11:31:28;;;;;;;20.90;9.27;;;;;;;2.21;61.73;101372.02;125136;1099;104373;-82
2022/03/01 11:34:23;;;;;;;20.63;8.80;;;;;;;2.22;61.52;101368.66;124671;1103;104258;-85
2022/03/01 11:37:02;;;;;;;21.13;9.00;;;;;;;2.26;61.42;101377.58;124780;1100;104245;-83
2022/03/01 11:39:40;;;;;;;19.17;8.47;;;;;;;2.29;61.03;101372.66;124507;1099;104345;-83
2022/03/01 11:42:33;;;;;;;24.70;10.90;;;;;;;2.26;61.16;101360.38;124434;1099;118105;-84
2022/03/01 11:45:15;;;;;;;22.67;9.70;;;;;;;2.23;61.60;101354.95;124129;1099;104168;-78
2022/03/01 11:47:51;;;;;;;25.53;11.00;;;;;;;2.28;61.14;101347.55;123771;1099;104328;-81
2022/03/01 11:50:33;;;;;;;20.07;9.27;;;;;;;2.30;61.43;101344.29;123716;1099;104322;-81
2022/03/01 11:53:14;;;;;;;24.83;10.93;;;;;;;2.31;61.57;101347.81;124530;1099;104239;-81
2022/03/01 11:56:17;;;;;;;;;;;;;;;;;;;;;
2022/03/01 11:59:05;;;;;;;18.60;8.67;;;;;;;2.34;61.48;101346.37;123712;1102;104498;-81
2022/03/01 12:01:54;;;;;;;21.60;9.40;;;;;;;2.33;61.40;101341.95;123915;1102;104492;-82
2022/03/01 12:04:50;;;;;;;23.90;9.83;;;;;;;2.32;61.09;101340.16;123720;1102;104479;-82
2022/03/01 12:07:31;;;;;;;24.02;9.95;;;;;;;2.33;61.34;101335.88;123519;1102;104389;-80
2022/03/01 12:10:09;;;;;;;21.90;9.73;;;;;;;2.31;61.61;101334.86;124076;1102;104617;-81
2022/03/01 12:13:31;;;;;;;;;;;;;;;;;;;;;
2022/03/01 12:16:50;;;;;;;25.00;11.37;;;;;;;2.32;60.88;101322.03;124311;1102;104389;-83
2022/03/01 12:19:41;;;;;;;24.57;11.00;;;;;;;2.36;61.33;101328.36;123483;1102;104392;-83
2022/03/01 12:26:07;;;;;;;21.67;9.90;;;;;;;2.35;61.53;101316.17;124044;1102;104432;-82